Solicitamos su permiso para obtener datos estadísticos de su navegación en esta web, en cumplimiento del Real Decreto-ley 13/2012. Si continúa navegando consideramos que acepta el uso de cookies. OK | Más información

AIRPORT MAP

METAR AND TAF INFORMATION

METAR FOR LEMH
ADDS - METARS form results

(0918 UTC 16 December 2017)
Data provider http://aviationweather.gov/adds/metars/
 
METAR text: LEMH 160900Z 02016KT 9999 FEW040 13/04 Q1014
Conditions at: LEMH (MAHON/MENORCA IS, ES) observed 0900 UTC 16 December 2017
Temperature: 13.0°C (55°F)
Dewpoint: 4.0°C (39°F) [RH = 54%]
Pressure (altimeter): 29.94 inches Hg (1014.0 mb)
Winds: from the NNE (20 degrees) at 18 MPH (16 knots; 8.3 m/s)
Visibility: 6 or more miles (10+ km)
Ceiling: at least 12,000 feet AGL
Clouds: few clouds at 4000 feet AGL
Weather: no significant weather observed at this time

METAR text: LEMH 160830Z 02017KT 9999 SCT040 12/04 Q1014
Conditions at: LEMH (MAHON/MENORCA IS, ES) observed 0830 UTC 16 December 2017
Temperature: 12.0°C (54°F)
Dewpoint: 4.0°C (39°F) [RH = 58%]
Pressure (altimeter): 29.94 inches Hg (1014.0 mb)
Winds: from the NNE (20 degrees) at 20 MPH (17 knots; 8.8 m/s)
Visibility: 6 or more miles (10+ km)
Ceiling: at least 12,000 feet AGL
Clouds: scattered clouds at 4000 feet AGL
Weather: no significant weather observed at this time

Forecast for: LEMH (MAHON/MENORCA IS, ES)
Text: TAF LEMH 160800Z 1609/1709 01013KT 9999 FEW030 TX13/1612Z TN06/1706Z
Forecast period: 0900 UTC 16 December 2017 to 0100 UTC 17 December 2017
Forecast type: FROM: standard forecast or significant change
Winds: from the N (10 degrees) at 15 MPH (13 knots; 6.8 m/s)
Visibility: 6 or more miles (10+ km)
Clouds: few clouds at 3000 feet AGL
Weather: no significant weather forecast for this period
Text: PROB30
Forecast period: 0900 to 1500 UTC 16 December 2017
Forecast type: TEMPORARY: The following changes expected for less than half the time period
Ceiling: 3000 feet AGL
Clouds: few clouds at 2000 feet AGL
broken clouds at 3000 feet AGL
Weather: SHRA  (rain showers)
Text: TEMPO 1609/1615 SHRA FEW020TCU BKN030
Forecast period: 0900 to 1800 UTC 16 December 2017
Forecast type: TEMPORARY: The following changes expected for less than half the time period
Winds: from the N (10 degrees) at 18 MPH (16 knots; 8.3 m/s)
gusting to 30 MPH (26 knots; 13.5 m/s)
Weather: no significant weather forecast for this period
Text: TEMPO 1609/1618 01016G26KT
Forecast period: 0100 to 0900 UTC 17 December 2017
Forecast type: BECOMING: Conditions expected to become as follows by 0400 UTC 17 December 2017
Winds: from the N (10 degrees) at 21 MPH (18 knots; 9.4 m/s)
gusting to 32 MPH (28 knots; 14.6 m/s)
Visibility: 6 or more miles (10+ km)
Clouds: few clouds at 3000 feet AGL
Weather: no significant weather forecast for this period

}